sensor_id;sensor_type;location;lat;lon;timestamp;P1;durP1;ratioP1;P2;durP2;ratioP2
36445;SDS011;22472;50.848;-1.216;2023-08-31T00:02:16;4.40;;;1.10;;
36445;SDS011;22472;50.848;-1.216;2023-08-31T00:04:44;3.63;;;1.33;;
36445;SDS011;22472;50.848;-1.216;2023-08-31T00:07:11;3.53;;;1.15;;
36445;SDS011;22472;50.848;-1.216;2023-08-31T00:09:40;5.82;;;1.63;;
36445;SDS011;22472;50.848;-1.216;2023-08-31T00:12:07;4.55;;;1.65;;
36445;SDS011;22472;50.848;-1.216;2023-08-31T00:14:35;5.35;;;1.55;;
36445;SDS011;22472;50.848;-1.216;2023-08-31T00:17:02;6.00;;;1.50;;
36445;SDS011;22472;50.848;-1.216;2023-08-31T00:19:30;6.20;;;2.10;;
36445;SDS011;22472;50.848;-1.216;2023-08-31T00:21:57;5.78;;;1.65;;
36445;SDS011;22472;50.848;-1.216;2023-08-31T00:24:24;8.30;;;1.73;;
36445;SDS011;22472;50.848;-1.216;2023-08-31T00:26:58;6.18;;;1.83;;
36445;SDS011;22472;50.848;-1.216;2023-08-31T00:29:26;7.13;;;1.70;;
36445;SDS011;22472;50.848;-1.216;2023-08-31T00:31:55;5.80;;;1.90;;
36445;SDS011;22472;50.848;-1.216;2023-08-31T00:34:22;3.78;;;1.42;;
36445;SDS011;22472;50.848;-1.216;2023-08-31T00:36:49;4.18;;;1.50;;
36445;SDS011;22472;50.848;-1.216;2023-08-31T00:39:16;5.20;;;1.38;;
36445;SDS011;22472;50.848;-1.216;2023-08-31T00:41:45;4.28;;;1.40;;
36445;SDS011;22472;50.848;-1.216;2023-08-31T00:44:14;4.88;;;1.20;;
36445;SDS011;22472;50.848;-1.216;2023-08-31T00:46:42;3.42;;;1.20;;
36445;SDS011;22472;50.848;-1.216;2023-08-31T00:49:09;4.60;;;1.30;;
36445;SDS011;22472;50.848;-1.216;2023-08-31T00:51:37;4.07;;;1.35;;
36445;SDS011;22472;50.848;-1.216;2023-08-31T00:54:04;5.10;;;1.20;;
36445;SDS011;22472;50.848;-1.216;2023-08-31T00:56:31;3.95;;;1.15;;
36445;SDS011;22472;50.848;-1.216;2023-08-31T00:58:59;5.32;;;1.40;;
36445;SDS011;22472;50.848;-1.216;2023-08-31T01:01:33;4.78;;;1.00;;
36445;SDS011;22472;50.848;-1.216;2023-08-31T01:04:04;3.63;;;1.10;;
36445;SDS011;22472;50.848;-1.216;2023-08-31T01:06:36;4.40;;;1.35;;
36445;SDS011;22472;50.848;-1.216;2023-08-31T01:09:08;3.38;;;0.90;;
36445;SDS011;22472;50.848;-1.216;2023-08-31T01:11:43;2.38;;;0.90;;
36445;SDS011;22472;50.848;-1.216;2023-08-31T01:14:14;6.13;;;1.30;;
36445;SDS011;22472;50.848;-1.216;2023-08-31T01:16:45;2.60;;;0.75;;
36445;SDS011;22472;50.848;-1.216;2023-08-31T01:19:17;3.70;;;1.05;;
36445;SDS011;22472;50.848;-1.216;2023-08-31T01:21:50;4.95;;;1.20;;
36445;SDS011;22472;50.848;-1.216;2023-08-31T01:24:21;2.95;;;0.90;;
36445;SDS011;22472;50.848;-1.216;2023-08-31T01:26:49;4.60;;;1.10;;
36445;SDS011;22472;50.848;-1.216;2023-08-31T01:29:17;3.85;;;1.27;;
36445;SDS011;22472;50.848;-1.216;2023-08-31T01:31:45;3.00;;;1.05;;
36445;SDS011;22472;50.848;-1.216;2023-08-31T01:34:12;4.65;;;0.93;;
36445;SDS011;22472;50.848;-1.216;2023-08-31T01:36:42;4.95;;;1.20;;
36445;SDS011;22472;50.848;-1.216;2023-08-31T01:39:11;4.13;;;1.15;;
36445;SDS011;22472;50.848;-1.216;2023-08-31T01:41:43;5.07;;;1.15;;
36445;SDS011;22472;50.848;-1.216;2023-08-31T01:44:12;6.20;;;1.20;;
36445;SDS011;22472;50.848;-1.216;2023-08-31T01:46:42;4.47;;;0.90;;
36445;SDS011;22472;50.848;-1.216;2023-08-31T01:49:09;2.72;;;0.85;;
36445;SDS011;22472;50.848;-1.216;2023-08-31T01:51:37;3.78;;;0.95;;
36445;SDS011;22472;50.848;-1.216;2023-08-31T01:54:05;3.42;;;0.77;;
36445;SDS011;22472;50.848;-1.216;2023-08-31T01:56:32;2.25;;;0.90;;
36445;SDS011;22472;50.848;-1.216;2023-08-31T01:59:01;3.08;;;1.00;;
36445;SDS011;22472;50.848;-1.216;2023-08-31T02:01:28;3.95;;;1.10;;
36445;SDS011;22472;50.848;-1.216;2023-08-31T02:03:55;4.32;;;1.40;;
36445;SDS011;22472;50.848;-1.216;2023-08-31T02:06:22;3.05;;;1.17;;
36445;SDS011;22472;50.848;-1.216;2023-08-31T02:08:50;3.70;;;1.15;;
36445;SDS011;22472;50.848;-1.216;2023-08-31T02:11:17;5.25;;;1.20;;
36445;SDS011;22472;50.848;-1.216;2023-08-31T02:13:44;3.30;;;1.10;;
36445;SDS011;22472;50.848;-1.216;2023-08-31T02:16:13;3.78;;;1.00;;
36445;SDS011;22472;50.848;-1.216;2023-08-31T02:18:40;3.42;;;0.98;;
36445;SDS011;22472;50.848;-1.216;2023-08-31T02:21:07;3.17;;;1.00;;
36445;SDS011;22472;50.848;-1.216;2023-08-31T02:23:35;3.88;;;1.20;;
36445;SDS011;22472;50.848;-1.216;2023-08-31T02:26:02;4.00;;;1.02;;
36445;SDS011;22472;50.848;-1.216;2023-08-31T02:28:29;2.78;;;1.10;;
36445;SDS011;22472;50.848;-1.216;2023-08-31T02:31:00;3.65;;;1.25;;
36445;SDS011;22472;50.848;-1.216;2023-08-31T02:33:29;3.60;;;1.27;;
36445;SDS011;22472;50.848;-1.216;2023-08-31T02:35:57;4.88;;;1.30;;
36445;SDS011;22472;50.848;-1.216;2023-08-31T02:38:24;4.57;;;1.52;;
36445;SDS011;22472;50.848;-1.216;2023-08-31T02:40:52;8.18;;;1.83;;
36445;SDS011;22472;50.848;-1.216;2023-08-31T02:43:19;3.65;;;1.30;;
36445;SDS011;22472;50.848;-1.216;2023-08-31T02:45:47;3.90;;;1.08;;
36445;SDS011;22472;50.848;-1.216;2023-08-31T02:48:14;4.25;;;1.35;;
36445;SDS011;22472;50.848;-1.216;2023-08-31T02:50:43;4.53;;;0.93;;
36445;SDS011;22472;50.848;-1.216;2023-08-31T02:53:10;3.47;;;1.25;;
36445;SDS011;22472;50.848;-1.216;2023-08-31T02:55:37;3.30;;;1.30;;
36445;SDS011;22472;50.848;-1.216;2023-08-31T02:58:05;3.45;;;1.00;;
36445;SDS011;22472;50.848;-1.216;2023-08-31T03:00:32;3.72;;;1.05;;
36445;SDS011;22472;50.848;-1.216;2023-08-31T03:02:59;5.25;;;1.20;;
36445;SDS011;22472;50.848;-1.216;2023-08-31T03:05:26;4.07;;;1.15;;
36445;SDS011;22472;50.848;-1.216;2023-08-31T03:07:55;2.75;;;0.88;;
36445;SDS011;22472;50.848;-1.216;2023-08-31T03:10:23;2.45;;;0.93;;
36445;SDS011;22472;50.848;-1.216;2023-08-31T03:12:50;2.67;;;0.75;;
36445;SDS011;22472;50.848;-1.216;2023-08-31T03:15:18;1.92;;;0.88;;
36445;SDS011;22472;50.848;-1.216;2023-08-31T03:17:45;3.63;;;1.30;;
36445;SDS011;22472;50.848;-1.216;2023-08-31T03:20:13;3.40;;;1.15;;
36445;SDS011;22472;50.848;-1.216;2023-08-31T03:22:40;3.55;;;1.05;;
36445;SDS011;22472;50.848;-1.216;2023-08-31T03:25:09;3.90;;;1.25;;
36445;SDS011;22472;50.848;-1.216;2023-08-31T03:27:36;6.00;;;1.90;;
36445;SDS011;22472;50.848;-1.216;2023-08-31T03:30:04;4.00;;;1.15;;
36445;SDS011;22472;50.848;-1.216;2023-08-31T03:32:31;2.92;;;1.00;;
36445;SDS011;22472;50.848;-1.216;2023-08-31T03:34:58;3.85;;;1.13;;
36445;SDS011;22472;50.848;-1.216;2023-08-31T03:37:26;2.67;;;0.95;;
36445;SDS011;22472;50.848;-1.216;2023-08-31T03:39:53;4.90;;;1.58;;
36445;SDS011;22472;50.848;-1.216;2023-08-31T03:42:22;3.28;;;1.50;;
36445;SDS011;22472;50.848;-1.216;2023-08-31T03:44:49;4.10;;;1.60;;
36445;SDS011;22472;50.848;-1.216;2023-08-31T03:47:17;3.70;;;1.33;;
36445;SDS011;22472;50.848;-1.216;2023-08-31T03:49:44;3.90;;;1.17;;
36445;SDS011;22472;50.848;-1.216;2023-08-31T03:52:11;3.50;;;1.08;;
36445;SDS011;22472;50.848;-1.216;2023-08-31T03:54:38;3.22;;;0.95;;
36445;SDS011;22472;50.848;-1.216;2023-08-31T03:57:06;4.15;;;1.40;;
36445;SDS011;22472;50.848;-1.216;2023-08-31T03:59:34;1.83;;;0.70;;
36445;SDS011;22472;50.848;-1.216;2023-08-31T04:02:02;2.40;;;0.90;;
36445;SDS011;22472;50.848;-1.216;2023-08-31T04:04:29;5.18;;;1.38;;
36445;SDS011;22472;50.848;-1.216;2023-08-31T04:06:57;3.28;;;1.30;;
36445;SDS011;22472;50.848;-1.216;2023-08-31T04:09:24;4.20;;;1.30;;
36445;SDS011;22472;50.848;-1.216;2023-08-31T04:11:52;3.55;;;1.05;;
36445;SDS011;22472;50.848;-1.216;2023-08-31T04:14:19;4.22;;;1.00;;
36445;SDS011;22472;50.848;-1.216;2023-08-31T04:16:47;4.80;;;1.23;;
36445;SDS011;22472;50.848;-1.216;2023-08-31T04:19:15;4.55;;;1.48;;
36445;SDS011;22472;50.848;-1.216;2023-08-31T04:21:42;6.13;;;1.40;;
36445;SDS011;22472;50.848;-1.216;2023-08-31T04:24:10;5.18;;;1.55;;
36445;SDS011;22472;50.848;-1.216;2023-08-31T04:26:37;3.65;;;1.45;;
36445;SDS011;22472;50.848;-1.216;2023-08-31T04:29:04;5.53;;;1.70;;
36445;SDS011;22472;50.848;-1.216;2023-08-31T04:31:31;5.68;;;1.40;;
36445;SDS011;22472;50.848;-1.216;2023-08-31T04:34:00;6.63;;;1.95;;
36445;SDS011;22472;50.848;-1.216;2023-08-31T04:36:27;6.43;;;1.77;;
36445;SDS011;22472;50.848;-1.216;2023-08-31T04:38:55;3.58;;;1.15;;
36445;SDS011;22472;50.848;-1.216;2023-08-31T04:41:22;4.32;;;1.80;;
36445;SDS011;22472;50.848;-1.216;2023-08-31T04:43:49;3.42;;;1.10;;
36445;SDS011;22472;50.848;-1.216;2023-08-31T04:46:17;3.30;;;1.38;;
36445;SDS011;22472;50.848;-1.216;2023-08-31T04:48:44;4.60;;;1.73;;
36445;SDS011;22472;50.848;-1.216;2023-08-31T04:54:07;6.32;;;1.70;;
36445;SDS011;22472;50.848;-1.216;2023-08-31T04:56:34;4.25;;;1.98;;
36445;SDS011;22472;50.848;-1.216;2023-08-31T04:59:02;5.22;;;1.45;;
36445;SDS011;22472;50.848;-1.216;2023-08-31T05:01:29;5.47;;;1.73;;
36445;SDS011;22472;50.848;-1.216;2023-08-31T05:03:57;7.38;;;1.83;;
36445;SDS011;22472;50.848;-1.216;2023-08-31T05:06:24;5.15;;;1.67;;
36445;SDS011;22472;50.848;-1.216;2023-08-31T05:08:51;4.95;;;1.60;;
36445;SDS011;22472;50.848;-1.216;2023-08-31T05:11:20;4.40;;;1.70;;
36445;SDS011;22472;50.848;-1.216;2023-08-31T05:13:47;3.88;;;1.50;;
36445;SDS011;22472;50.848;-1.216;2023-08-31T05:16:14;6.30;;;1.50;;
36445;SDS011;22472;50.848;-1.216;2023-08-31T05:18:41;5.65;;;1.58;;
36445;SDS011;22472;50.848;-1.216;2023-08-31T05:21:09;6.40;;;1.90;;
36445;SDS011;22472;50.848;-1.216;2023-08-31T05:23:36;4.82;;;1.58;;
36445;SDS011;22472;50.848;-1.216;2023-08-31T05:26:03;2.75;;;1.30;;
36445;SDS011;22472;50.848;-1.216;2023-08-31T05:28:32;6.30;;;1.60;;
36445;SDS011;22472;50.848;-1.216;2023-08-31T05:31:00;3.45;;;1.23;;
36445;SDS011;22472;50.848;-1.216;2023-08-31T05:33:27;3.00;;;1.13;;
36445;SDS011;22472;50.848;-1.216;2023-08-31T05:36:00;5.53;;;1.70;;
36445;SDS011;22472;50.848;-1.216;2023-08-31T05:38:28;3.45;;;1.17;;
36445;SDS011;22472;50.848;-1.216;2023-08-31T05:41:03;2.83;;;0.93;;
36445;SDS011;22472;50.848;-1.216;2023-08-31T05:43:32;4.22;;;1.38;;
36445;SDS011;22472;50.848;-1.216;2023-08-31T05:45:59;3.75;;;1.02;;
36445;SDS011;22472;50.848;-1.216;2023-08-31T05:48:26;3.75;;;1.35;;
36445;SDS011;22472;50.848;-1.216;2023-08-31T05:50:54;3.05;;;1.00;;
36445;SDS011;22472;50.848;-1.216;2023-08-31T05:53:21;6.15;;;1.52;;
36445;SDS011;22472;50.848;-1.216;2023-08-31T05:55:48;3.10;;;1.00;;
36445;SDS011;22472;50.848;-1.216;2023-08-31T05:58:15;4.90;;;1.15;;
36445;SDS011;22472;50.848;-1.216;2023-08-31T06:00:44;7.07;;;1.40;;
36445;SDS011;22472;50.848;-1.216;2023-08-31T06:03:11;2.78;;;1.00;;
36445;SDS011;22472;50.848;-1.216;2023-08-31T06:05:39;4.53;;;1.35;;
36445;SDS011;22472;50.848;-1.216;2023-08-31T06:08:06;3.00;;;1.35;;
36445;SDS011;22472;50.848;-1.216;2023-08-31T06:10:33;4.32;;;1.60;;
36445;SDS011;22472;50.848;-1.216;2023-08-31T06:13:00;3.72;;;1.65;;
36445;SDS011;22472;50.848;-1.216;2023-08-31T06:15:28;3.45;;;1.42;;
36445;SDS011;22472;50.848;-1.216;2023-08-31T06:17:56;5.20;;;1.38;;
36445;SDS011;22472;50.848;-1.216;2023-08-31T06:20:24;4.47;;;1.52;;
36445;SDS011;22472;50.848;-1.216;2023-08-31T06:22:51;4.22;;;1.45;;
36445;SDS011;22472;50.848;-1.216;2023-08-31T06:25:18;1.83;;;0.95;;
36445;SDS011;22472;50.848;-1.216;2023-08-31T06:27:47;5.75;;;2.10;;
36445;SDS011;22472;50.848;-1.216;2023-08-31T06:30:14;7.80;;;2.42;;
36445;SDS011;22472;50.848;-1.216;2023-08-31T06:32:42;3.15;;;1.45;;
36445;SDS011;22472;50.848;-1.216;2023-08-31T06:35:11;4.40;;;2.15;;
36445;SDS011;22472;50.848;-1.216;2023-08-31T06:37:39;5.03;;;2.10;;
36445;SDS011;22472;50.848;-1.216;2023-08-31T06:40:06;5.82;;;1.83;;
36445;SDS011;22472;50.848;-1.216;2023-08-31T06:42:34;3.75;;;1.60;;
36445;SDS011;22472;50.848;-1.216;2023-08-31T06:45:02;4.18;;;2.10;;
36445;SDS011;22472;50.848;-1.216;2023-08-31T06:47:29;5.65;;;2.28;;
36445;SDS011;22472;50.848;-1.216;2023-08-31T06:49:56;3.83;;;1.88;;
36445;SDS011;22472;50.848;-1.216;2023-08-31T06:52:25;4.93;;;2.00;;
36445;SDS011;22472;50.848;-1.216;2023-08-31T06:54:52;4.90;;;2.10;;
36445;SDS011;22472;50.848;-1.216;2023-08-31T06:57:21;4.20;;;1.55;;
36445;SDS011;22472;50.848;-1.216;2023-08-31T06:59:49;4.60;;;1.70;;
36445;SDS011;22472;50.848;-1.216;2023-08-31T07:02:16;6.55;;;2.20;;
36445;SDS011;22472;50.848;-1.216;2023-08-31T07:04:44;4.28;;;2.00;;
36445;SDS011;22472;50.848;-1.216;2023-08-31T07:07:11;4.35;;;1.83;;
36445;SDS011;22472;50.848;-1.216;2023-08-31T07:09:41;6.18;;;1.98;;
36445;SDS011;22472;50.848;-1.216;2023-08-31T07:12:09;4.60;;;2.10;;
36445;SDS011;22472;50.848;-1.216;2023-08-31T07:14:36;6.22;;;1.77;;
36445;SDS011;22472;50.848;-1.216;2023-08-31T07:17:03;6.47;;;1.70;;
36445;SDS011;22472;50.848;-1.216;2023-08-31T07:19:31;3.95;;;1.63;;
36445;SDS011;22472;50.848;-1.216;2023-08-31T07:21:58;4.03;;;2.00;;
36445;SDS011;22472;50.848;-1.216;2023-08-31T07:24:25;3.83;;;1.50;;
36445;SDS011;22472;50.848;-1.216;2023-08-31T07:26:54;3.92;;;1.58;;
36445;SDS011;22472;50.848;-1.216;2023-08-31T07:29:21;5.78;;;1.83;;
36445;SDS011;22472;50.848;-1.216;2023-08-31T07:31:48;5.70;;;1.77;;
36445;SDS011;22472;50.848;-1.216;2023-08-31T07:34:15;4.65;;;1.42;;
36445;SDS011;22472;50.848;-1.216;2023-08-31T07:36:43;3.88;;;1.60;;
36445;SDS011;22472;50.848;-1.216;2023-08-31T07:39:10;3.63;;;1.77;;
36445;SDS011;22472;50.848;-1.216;2023-08-31T07:41:37;5.55;;;2.00;;
36445;SDS011;22472;50.848;-1.216;2023-08-31T07:44:06;6.18;;;2.20;;
36445;SDS011;22472;50.848;-1.216;2023-08-31T07:46:33;5.10;;;1.95;;
36445;SDS011;22472;50.848;-1.216;2023-08-31T07:49:01;5.10;;;1.95;;
36445;SDS011;22472;50.848;-1.216;2023-08-31T07:51:29;3.90;;;1.73;;
36445;SDS011;22472;50.848;-1.216;2023-08-31T07:53:56;3.17;;;1.83;;
36445;SDS011;22472;50.848;-1.216;2023-08-31T07:56:23;3.58;;;1.85;;
36445;SDS011;22472;50.848;-1.216;2023-08-31T07:58:50;4.97;;;2.33;;
36445;SDS011;22472;50.848;-1.216;2023-08-31T08:01:19;9.45;;;2.90;;
36445;SDS011;22472;50.848;-1.216;2023-08-31T08:03:46;6.05;;;2.17;;
36445;SDS011;22472;50.848;-1.216;2023-08-31T08:06:14;5.32;;;2.70;;
36445;SDS011;22472;50.848;-1.216;2023-08-31T08:08:41;6.13;;;1.80;;
36445;SDS011;22472;50.848;-1.216;2023-08-31T08:11:09;3.92;;;2.42;;
36445;SDS011;22472;50.848;-1.216;2023-08-31T08:13:36;4.03;;;1.63;;
36445;SDS011;22472;50.848;-1.216;2023-08-31T08:16:03;4.30;;;1.90;;
36445;SDS011;22472;50.848;-1.216;2023-08-31T08:18:32;6.97;;;2.45;;
36445;SDS011;22472;50.848;-1.216;2023-08-31T08:20:59;4.72;;;2.15;;
36445;SDS011;22472;50.848;-1.216;2023-08-31T08:23:27;5.22;;;2.42;;
36445;SDS011;22472;50.848;-1.216;2023-08-31T08:25:54;4.15;;;2.20;;
36445;SDS011;22472;50.848;-1.216;2023-08-31T08:28:21;5.82;;;2.30;;
36445;SDS011;22472;50.848;-1.216;2023-08-31T08:30:49;4.45;;;2.47;;
36445;SDS011;22472;50.848;-1.216;2023-08-31T08:33:18;4.50;;;1.50;;
36445;SDS011;22472;50.848;-1.216;2023-08-31T08:35:49;6.60;;;2.40;;
36445;SDS011;22472;50.848;-1.216;2023-08-31T08:38:17;4.28;;;1.60;;
36445;SDS011;22472;50.848;-1.216;2023-08-31T08:40:44;5.22;;;1.42;;
36445;SDS011;22472;50.848;-1.216;2023-08-31T08:43:11;5.43;;;1.52;;
36445;SDS011;22472;50.848;-1.216;2023-08-31T08:45:39;4.68;;;1.40;;
36445;SDS011;22472;50.848;-1.216;2023-08-31T08:48:08;4.97;;;1.25;;
36445;SDS011;22472;50.848;-1.216;2023-08-31T08:50:35;5.30;;;1.58;;
36445;SDS011;22472;50.848;-1.216;2023-08-31T08:53:05;5.53;;;1.35;;
36445;SDS011;22472;50.848;-1.216;2023-08-31T08:55:32;5.40;;;1.10;;
36445;SDS011;22472;50.848;-1.216;2023-08-31T08:57:59;6.45;;;0.95;;
36445;SDS011;22472;50.848;-1.216;2023-08-31T09:00:28;7.00;;;1.25;;
36445;SDS011;22472;50.848;-1.216;2023-08-31T09:02:56;4.10;;;0.98;;
36445;SDS011;22472;50.848;-1.216;2023-08-31T09:05:23;4.50;;;1.00;;
36445;SDS011;22472;50.848;-1.216;2023-08-31T09:08:00;4.28;;;0.90;;
36445;SDS011;22472;50.848;-1.216;2023-08-31T09:10:33;4.60;;;1.00;;
36445;SDS011;22472;50.848;-1.216;2023-08-31T09:13:01;5.97;;;1.15;;
36445;SDS011;22472;50.848;-1.216;2023-08-31T09:15:35;4.47;;;0.85;;
36445;SDS011;22472;50.848;-1.216;2023-08-31T09:18:03;5.20;;;1.10;;
36445;SDS011;22472;50.848;-1.216;2023-08-31T09:20:30;5.63;;;1.30;;
36445;SDS011;22472;50.848;-1.216;2023-08-31T09:22:58;4.43;;;1.08;;
36445;SDS011;22472;50.848;-1.216;2023-08-31T09:25:25;4.75;;;1.20;;
36445;SDS011;22472;50.848;-1.216;2023-08-31T09:27:54;5.80;;;1.08;;
36445;SDS011;22472;50.848;-1.216;2023-08-31T09:30:21;4.70;;;1.30;;
36445;SDS011;22472;50.848;-1.216;2023-08-31T09:32:51;5.70;;;1.02;;
36445;SDS011;22472;50.848;-1.216;2023-08-31T09:35:19;5.93;;;1.25;;
36445;SDS011;22472;50.848;-1.216;2023-08-31T09:37:54;4.85;;;1.10;;
36445;SDS011;22472;50.848;-1.216;2023-08-31T09:40:22;5.03;;;0.85;;
36445;SDS011;22472;50.848;-1.216;2023-08-31T09:42:50;4.03;;;1.02;;
36445;SDS011;22472;50.848;-1.216;2023-08-31T09:45:18;5.13;;;1.50;;
36445;SDS011;22472;50.848;-1.216;2023-08-31T09:47:51;6.38;;;1.10;;
36445;SDS011;22472;50.848;-1.216;2023-08-31T09:50:19;5.22;;;0.90;;
36445;SDS011;22472;50.848;-1.216;2023-08-31T09:52:46;5.30;;;0.90;;
36445;SDS011;22472;50.848;-1.216;2023-08-31T09:55:15;4.55;;;1.05;;
36445;SDS011;22472;50.848;-1.216;2023-08-31T09:57:43;3.42;;;0.90;;
36445;SDS011;22472;50.848;-1.216;2023-08-31T10:00:11;3.95;;;1.10;;
36445;SDS011;22472;50.848;-1.216;2023-08-31T10:02:42;6.20;;;0.80;;
36445;SDS011;22472;50.848;-1.216;2023-08-31T10:05:10;3.08;;;0.88;;
36445;SDS011;22472;50.848;-1.216;2023-08-31T10:07:37;4.25;;;1.00;;
36445;SDS011;22472;50.848;-1.216;2023-08-31T10:10:05;5.13;;;1.02;;
36445;SDS011;22472;50.848;-1.216;2023-08-31T10:12:33;4.63;;;0.82;;
36445;SDS011;22472;50.848;-1.216;2023-08-31T10:15:02;4.53;;;1.10;;
36445;SDS011;22472;50.848;-1.216;2023-08-31T10:17:30;4.03;;;0.90;;
36445;SDS011;22472;50.848;-1.216;2023-08-31T10:19:59;3.70;;;1.10;;
36445;SDS011;22472;50.848;-1.216;2023-08-31T10:22:27;6.63;;;1.05;;
36445;SDS011;22472;50.848;-1.216;2023-08-31T10:24:58;3.70;;;1.15;;
36445;SDS011;22472;50.848;-1.216;2023-08-31T10:27:25;4.93;;;0.98;;
36445;SDS011;22472;50.848;-1.216;2023-08-31T10:29:53;5.38;;;1.10;;
36445;SDS011;22472;50.848;-1.216;2023-08-31T10:32:21;5.38;;;0.93;;
36445;SDS011;22472;50.848;-1.216;2023-08-31T10:37:32;4.45;;;0.98;;
36445;SDS011;22472;50.848;-1.216;2023-08-31T10:40:08;5.85;;;1.38;;
36445;SDS011;22472;50.848;-1.216;2023-08-31T10:42:43;5.13;;;1.10;;
36445;SDS011;22472;50.848;-1.216;2023-08-31T10:45:12;4.90;;;1.10;;
36445;SDS011;22472;50.848;-1.216;2023-08-31T10:47:40;6.03;;;1.00;;
36445;SDS011;22472;50.848;-1.216;2023-08-31T10:50:17;4.30;;;1.08;;
36445;SDS011;22472;50.848;-1.216;2023-08-31T10:52:46;5.30;;;1.02;;
36445;SDS011;22472;50.848;-1.216;2023-08-31T10:55:14;3.60;;;0.73;;
36445;SDS011;22472;50.848;-1.216;2023-08-31T10:57:41;6.53;;;0.88;;
36445;SDS011;22472;50.848;-1.216;2023-08-31T11:00:09;5.47;;;0.88;;
36445;SDS011;22472;50.848;-1.216;2023-08-31T11:02:38;4.45;;;1.10;;
36445;SDS011;22472;50.848;-1.216;2023-08-31T11:07:36;6.80;;;0.85;;
36445;SDS011;22472;50.848;-1.216;2023-08-31T11:10:12;6.00;;;1.05;;
36445;SDS011;22472;50.848;-1.216;2023-08-31T11:12:40;5.30;;;0.90;;
36445;SDS011;22472;50.848;-1.216;2023-08-31T11:15:08;2.42;;;0.60;;
36445;SDS011;22472;50.848;-1.216;2023-08-31T11:17:37;3.95;;;0.85;;
36445;SDS011;22472;50.848;-1.216;2023-08-31T11:20:06;4.45;;;0.93;;
36445;SDS011;22472;50.848;-1.216;2023-08-31T11:22:34;3.90;;;0.80;;
36445;SDS011;22472;50.848;-1.216;2023-08-31T11:27:33;3.35;;;0.68;;
36445;SDS011;22472;50.848;-1.216;2023-08-31T11:30:00;2.88;;;0.70;;
36445;SDS011;22472;50.848;-1.216;2023-08-31T11:32:28;3.45;;;0.57;;
36445;SDS011;22472;50.848;-1.216;2023-08-31T11:34:55;1.85;;;0.50;;
36445;SDS011;22472;50.848;-1.216;2023-08-31T11:37:22;3.03;;;0.73;;
36445;SDS011;22472;50.848;-1.216;2023-08-31T11:39:52;4.18;;;0.60;;
36445;SDS011;22472;50.848;-1.216;2023-08-31T11:42:20;2.33;;;0.73;;
36445;SDS011;22472;50.848;-1.216;2023-08-31T11:44:50;4.82;;;0.80;;
36445;SDS011;22472;50.848;-1.216;2023-08-31T11:47:17;3.38;;;0.68;;
36445;SDS011;22472;50.848;-1.216;2023-08-31T11:49:45;3.95;;;0.80;;
36445;SDS011;22472;50.848;-1.216;2023-08-31T11:52:13;4.70;;;0.70;;
36445;SDS011;22472;50.848;-1.216;2023-08-31T11:54:41;4.72;;;0.70;;
36445;SDS011;22472;50.848;-1.216;2023-08-31T11:57:10;2.55;;;0.50;;
36445;SDS011;22472;50.848;-1.216;2023-08-31T11:59:40;3.17;;;0.52;;
36445;SDS011;22472;50.848;-1.216;2023-08-31T12:02:09;2.88;;;0.43;;
36445;SDS011;22472;50.848;-1.216;2023-08-31T12:04:43;1.88;;;0.38;;
36445;SDS011;22472;50.848;-1.216;2023-08-31T12:07:10;3.20;;;0.60;;
36445;SDS011;22472;50.848;-1.216;2023-08-31T12:09:37;2.50;;;0.45;;
36445;SDS011;22472;50.848;-1.216;2023-08-31T12:12:05;1.95;;;0.47;;
36445;SDS011;22472;50.848;-1.216;2023-08-31T12:14:36;2.38;;;0.50;;
36445;SDS011;22472;50.848;-1.216;2023-08-31T12:17:05;1.38;;;0.40;;
36445;SDS011;22472;50.848;-1.216;2023-08-31T12:19:35;2.65;;;0.35;;
36445;SDS011;22472;50.848;-1.216;2023-08-31T12:24:36;1.67;;;0.30;;
36445;SDS011;22472;50.848;-1.216;2023-08-31T12:27:04;1.17;;;0.30;;
36445;SDS011;22472;50.848;-1.216;2023-08-31T12:29:31;2.58;;;0.35;;
36445;SDS011;22472;50.848;-1.216;2023-08-31T12:31:58;0.93;;;0.30;;
36445;SDS011;22472;50.848;-1.216;2023-08-31T12:34:26;2.08;;;0.32;;
36445;SDS011;22472;50.848;-1.216;2023-08-31T12:36:54;1.25;;;0.30;;
36445;SDS011;22472;50.848;-1.216;2023-08-31T12:39:25;1.80;;;0.40;;
36445;SDS011;22472;50.848;-1.216;2023-08-31T12:41:52;2.42;;;0.30;;
36445;SDS011;22472;50.848;-1.216;2023-08-31T12:44:19;1.98;;;0.20;;
36445;SDS011;22472;50.848;-1.216;2023-08-31T12:46:47;1.85;;;0.20;;
36445;SDS011;22472;50.848;-1.216;2023-08-31T12:49:14;1.13;;;0.30;;
36445;SDS011;22472;50.848;-1.216;2023-08-31T12:51:41;1.60;;;0.20;;
36445;SDS011;22472;50.848;-1.216;2023-08-31T12:54:10;0.90;;;0.20;;
36445;SDS011;22472;50.848;-1.216;2023-08-31T12:56:37;2.10;;;0.32;;
36445;SDS011;22472;50.848;-1.216;2023-08-31T12:59:04;2.70;;;0.32;;
36445;SDS011;22472;50.848;-1.216;2023-08-31T13:01:32;2.13;;;0.20;;
36445;SDS011;22472;50.848;-1.216;2023-08-31T13:03:59;3.38;;;0.30;;
36445;SDS011;22472;50.848;-1.216;2023-08-31T13:06:27;1.98;;;0.17;;
36445;SDS011;22472;50.848;-1.216;2023-08-31T13:08:54;1.20;;;0.20;;
36445;SDS011;22472;50.848;-1.216;2023-08-31T13:11:23;1.25;;;0.20;;
36445;SDS011;22472;50.848;-1.216;2023-08-31T13:13:50;1.50;;;0.10;;
36445;SDS011;22472;50.848;-1.216;2023-08-31T13:16:18;0.93;;;0.20;;
36445;SDS011;22472;50.848;-1.216;2023-08-31T13:18:47;0.50;;;0.10;;
36445;SDS011;22472;50.848;-1.216;2023-08-31T13:21:14;0.80;;;0.10;;
36445;SDS011;22472;50.848;-1.216;2023-08-31T13:23:41;1.27;;;0.13;;
36445;SDS011;22472;50.848;-1.216;2023-08-31T13:26:10;0.98;;;0.20;;
36445;SDS011;22472;50.848;-1.216;2023-08-31T13:28:38;1.10;;;0.10;;
36445;SDS011;22472;50.848;-1.216;2023-08-31T13:31:06;1.42;;;0.10;;
36445;SDS011;22472;50.848;-1.216;2023-08-31T13:33:34;1.00;;;0.20;;
36445;SDS011;22472;50.848;-1.216;2023-08-31T13:36:01;0.80;;;0.13;;
36445;SDS011;22472;50.848;-1.216;2023-08-31T13:38:28;2.28;;;0.13;;
36445;SDS011;22472;50.848;-1.216;2023-08-31T13:40:56;0.95;;;0.10;;
36445;SDS011;22472;50.848;-1.216;2023-08-31T13:43:23;2.28;;;0.20;;
36445;SDS011;22472;50.848;-1.216;2023-08-31T13:45:52;0.65;;;0.15;;
36445;SDS011;22472;50.848;-1.216;2023-08-31T13:48:19;1.02;;;0.20;;
36445;SDS011;22472;50.848;-1.216;2023-08-31T13:50:47;1.80;;;0.28;;
36445;SDS011;22472;50.848;-1.216;2023-08-31T13:53:14;2.38;;;0.20;;
36445;SDS011;22472;50.848;-1.216;2023-08-31T13:55:42;0.70;;;0.10;;
36445;SDS011;22472;50.848;-1.216;2023-08-31T13:58:09;1.30;;;0.20;;
36445;SDS011;22472;50.848;-1.216;2023-08-31T14:00:37;1.17;;;0.10;;
36445;SDS011;22472;50.848;-1.216;2023-08-31T14:03:05;1.48;;;0.10;;
36445;SDS011;22472;50.848;-1.216;2023-08-31T14:05:32;2.03;;;0.10;;
36445;SDS011;22472;50.848;-1.216;2023-08-31T14:08:00;2.00;;;0.17;;
36445;SDS011;22472;50.848;-1.216;2023-08-31T14:10:29;1.83;;;0.20;;
36445;SDS011;22472;50.848;-1.216;2023-08-31T14:12:58;0.98;;;0.10;;
36445;SDS011;22472;50.848;-1.216;2023-08-31T14:15:25;1.05;;;0.20;;
36445;SDS011;22472;50.848;-1.216;2023-08-31T14:17:52;1.73;;;0.22;;
36445;SDS011;22472;50.848;-1.216;2023-08-31T14:20:21;3.35;;;0.20;;
36445;SDS011;22472;50.848;-1.216;2023-08-31T14:22:48;2.40;;;0.20;;
36445;SDS011;22472;50.848;-1.216;2023-08-31T14:25:16;1.00;;;0.10;;
36445;SDS011;22472;50.848;-1.216;2023-08-31T14:27:43;0.93;;;0.15;;
36445;SDS011;22472;50.848;-1.216;2023-08-31T14:30:10;1.75;;;0.30;;
36445;SDS011;22472;50.848;-1.216;2023-08-31T14:32:38;2.92;;;0.20;;
36445;SDS011;22472;50.848;-1.216;2023-08-31T14:35:05;2.25;;;0.20;;
36445;SDS011;22472;50.848;-1.216;2023-08-31T14:37:34;1.92;;;0.20;;
36445;SDS011;22472;50.848;-1.216;2023-08-31T14:40:01;0.85;;;0.10;;
36445;SDS011;22472;50.848;-1.216;2023-08-31T14:42:32;2.40;;;0.17;;
36445;SDS011;22472;50.848;-1.216;2023-08-31T14:44:59;2.17;;;0.20;;
36445;SDS011;22472;50.848;-1.216;2023-08-31T14:47:26;1.30;;;0.20;;
36445;SDS011;22472;50.848;-1.216;2023-08-31T14:49:54;1.63;;;0.20;;
36445;SDS011;22472;50.848;-1.216;2023-08-31T14:52:22;2.60;;;0.20;;